Latest Weather Observations for Tocal

IDN60801

Issued at 7:33 pm EST Sunday 31 July 2016 (issued every 30 minutes, with the page automatically refreshed every 10 minutes)

About weather observations | Map of weather stations | Latest weather observations for NSW | Other Formats
Station Details ID: 061250 Name: TOCAL AWS Lat: -32.63 Lon: 151.59 Height: 30.0 m
Data from the previous 72 hours. | See also: Recent months at Tocal
Date/Time
EST
Temp
°C
App
Temp
°C
Dew
Point
°C
Rel
Hum
%
Delta-T
°C
Wind Press
QNH
hPa
Press
MSL
hPa
Rain since
9am
mm
Dir  Spd
km/h
Gust
km/h
Spd
kts
Gust
kts
31/07:30pm 15.1 12.4 5.7 53 4.5 NNW 9 17 5 9 - - 0.0
31/07:00pm 14.8 12.4 5.3 53 4.5 N 7 9 4 5 - - 0.0
31/06:30pm 17.3 14.4 4.4 42 6.1 NW 9 11 5 6 - - 0.0
31/06:00pm 18.0 14.3 4.3 40 6.5 NW 13 20 7 11 - - 0.0
31/05:30pm 18.5 14.8 4.2 38 6.8 WNW 13 19 7 10 - - 0.0
31/05:00pm 19.0 16.1 4.4 38 7.0 WNW 9 15 5 8 - - 0.0
31/04:30pm 20.0 16.1 3.6 34 7.8 W 13 20 7 11 - - 0.0
31/04:00pm 20.0 15.6 2.6 31 8.1 W 15 26 8 14 - - 0.0
31/03:30pm 20.3 17.9 5.3 37 7.4 NW 7 13 4 7 - - 0.0
31/03:00pm 19.9 15.7 3.7 34 7.7 W 15 26 8 14 - - 0.0
31/02:30pm 20.9 17.0 3.5 31 8.3 WNW 13 24 7 13 - - 0.0
31/02:00pm 21.1 15.9 2.6 29 8.7 NW 19 30 10 16 - - 0.0
31/01:30pm 20.0 15.8 3.9 34 7.7 NW 15 30 8 16 - - 0.0
31/01:00pm 19.7 14.4 3.1 33 7.8 WNW 20 32 11 17 - - 0.0
31/12:30pm 20.9 15.5 4.4 34 8.0 WNW 22 33 12 18 - - 0.0
31/12:00pm 20.1 15.7 4.9 37 7.4 WNW 17 35 9 19 - - 0.0
31/11:30am 19.0 14.2 5.5 41 6.6 NW 20 32 11 17 - - 0.0
31/11:00am 18.8 14.3 6.1 43 6.3 W 19 33 10 18 - - 0.0
31/10:30am 17.8 13.7 6.2 46 5.7 WNW 17 32 9 17 - - 0.0
31/10:00am 17.2 12.8 6.7 50 5.2 WNW 19 30 10 16 - - 0.0
31/09:30am 15.9 12.3 6.7 54 4.5 W 15 26 8 14 - - 0.0
31/09:00am 14.5 12.6 7.4 62 3.5 SSW 7 20 4 11 - - 0.0
31/08:30am 11.1 9.3 8.0 81 1.5 SE 7 9 4 5 - - 0.0
31/08:00am 9.0 8.0 7.5 90 0.7 ESE 2 6 1 3 - - 0.0
31/07:30am 7.3 5.3 7.1 99 0.1 SE 7 9 4 5 - - 0.0
31/07:00am 5.1 3.6 5.1 100 0.0 WSW 2 7 1 4 - - 0.0
31/06:30am 5.7 4.7 5.7 100 0.0 CALM 0 0 0 0 - - 0.0
31/06:00am 5.5 4.5 5.5 100 0.0 CALM 0 0 0 0 - - 0.0
31/05:30am 5.4 4.4 5.4 100 0.0 CALM 0 0 0 0 - - 0.0
31/05:00am 5.2 4.1 5.2 100 0.0 CALM 0 0 0 0 - - 0.0
31/04:30am 5.7 3.4 5.7 100 0.0 WSW 7 9 4 5 - - 0.0
31/04:00am 6.3 4.3 6.3 100 0.0 WNW 6 7 3 4 - - 0.0
31/03:30am 7.2 6.6 7.2 100 0.0 CALM 0 0 0 0 - - 0.0
31/03:00am 6.4 5.6 6.4 100 0.0 CALM 0 0 0 0 - - 0.0
31/02:30am 6.8 5.3 6.8 100 0.0 WSW 4 7 2 4 - - 0.0
31/02:00am 6.9 5.8 6.9 100 0.0 WNW 2 6 1 3 - - 0.0
31/01:30am 6.9 6.2 6.9 100 0.0 CALM 0 0 0 0 - - 0.0
31/01:00am 7.7 5.9 7.3 97 0.2 WNW 6 9 3 5 - - 0.0
31/12:30am 8.7 8.3 8.3 97 0.2 CALM 0 0 0 0 - - 0.0
31/12:00am 8.6 8.1 8.0 96 0.3 CALM 0 0 0 0 - - 0.0
 
Date/Time
EST
Temp
°C
App
Temp
°C
Dew
Point
°C
Rel
Hum
%
Delta-T
°C
Wind Press
QNH
hPa
Press
MSL
hPa
Rain since
9am
mm
Dir  Spd
km/h
Gust
km/h
Spd
kts
Gust
kts
30/11:30pm 8.8 8.4 8.2 96 0.3 CALM 0 0 0 0 - - 0.0
30/11:00pm 9.1 8.8 8.5 96 0.3 CALM 0 0 0 0 - - 0.0
30/10:30pm 8.5 8.1 8.1 97 0.2 CALM 0 0 0 0 - - 0.0
30/10:00pm 8.6 7.8 8.2 97 0.2 WNW 2 6 1 3 - - 0.0
30/09:30pm 8.9 7.4 8.3 96 0.3 NNW 6 7 3 4 - - 0.0
30/09:00pm 8.9 7.1 8.1 95 0.4 NNW 7 9 4 5 - - 0.0
30/08:30pm 9.6 7.9 8.4 92 0.6 NW 7 11 4 6 - - 0.0
30/08:00pm 10.1 8.5 8.7 91 0.7 NNW 7 7 4 4 - - 0.0
30/07:30pm 10.5 8.9 8.9 90 0.8 WNW 7 9 4 5 - - 0.0
30/07:00pm 11.4 10.1 9.2 86 1.1 NW 6 9 3 5 - - 0.0
30/06:30pm 12.9 11.7 9.6 80 1.7 WNW 6 7 3 4 - - 0.0
30/06:00pm 14.1 13.0 9.8 75 2.2 ESE 6 7 3 4 - - 0.0
30/05:30pm 15.1 13.3 9.3 68 3.0 SE 9 13 5 7 - - 0.0
30/05:00pm 16.1 14.4 8.4 60 3.9 SSE 7 11 4 6 - - 0.0
30/04:30pm 17.1 15.0 8.1 55 4.6 SE 9 13 5 7 - - 0.0
30/04:00pm 17.9 15.4 8.4 53 4.9 ESE 11 15 6 8 - - 0.0
30/03:30pm 18.2 16.6 7.8 50 5.3 ESE 6 13 3 7 - - 0.0
30/03:00pm 18.0 16.3 8.3 53 5.0 SSE 7 11 4 6 - - 0.0
30/02:30pm 18.5 16.3 7.7 49 5.5 SSW 9 13 5 7 - - 0.0
30/02:00pm 19.0 16.9 8.4 50 5.5 SSE 9 11 5 6 - - 0.0
30/01:30pm 18.8 16.7 8.4 51 5.4 SSW 9 13 5 7 - - 0.0
30/01:00pm 18.4 16.9 8.3 51 5.2 WSW 6 9 3 5 - - 0.0
30/12:30pm 17.3 15.4 6.6 49 5.3 NNE 6 9 3 5 - - 0.0
30/12:00pm 17.1 14.8 5.8 47 5.5 WNW 7 11 4 6 - - 0.0
30/11:30am 16.3 13.6 5.5 48 5.2 WNW 9 17 5 9 - - 0.0
30/11:00am 15.5 12.2 4.3 47 5.2 WSW 11 15 6 8 - - 0.0
30/10:30am 14.8 12.1 5.5 53 4.4 N 9 13 5 7 - - 0.0
30/10:00am 13.3 10.9 5.4 59 3.7 NNE 7 11 4 6 - - 0.0
30/09:30am 12.1 9.8 5.7 65 3.0 N 7 9 4 5 - - 0.0
30/09:00am 9.9 7.5 5.3 73 2.1 NNE 7 9 4 5 - - 0.0
30/08:30am 8.1 6.9 4.5 78 1.6 CALM 0 0 0 0 - - 0.0
30/08:00am 7.7 6.6 5.2 84 1.1 CALM 0 0 0 0 - - 0.0
30/07:30am 6.4 5.1 4.3 86 0.9 CALM 0 4 0 2 - - 0.0
30/07:00am 4.5 3.1 3.5 93 0.4 CALM 0 0 0 0 - - 0.0
30/06:30am 4.6 3.2 3.4 92 0.5 CALM 0 7 0 4 - - 0.0
30/06:00am 4.0 2.2 3.3 95 0.3 N 2 7 1 4 - - 0.0
30/05:30am 4.9 3.5 3.7 92 0.5 CALM 0 0 0 0 - - 0.0
30/05:00am 5.4 4.0 3.7 89 0.7 CALM 0 0 0 0 - - 0.0
30/04:30am 7.0 5.7 4.0 81 1.3 CALM 0 0 0 0 - - 0.0
30/04:00am 6.2 4.5 4.1 86 0.9 ESE 2 7 1 4 - - 0.0
30/03:30am 8.4 5.3 3.8 73 2.0 WSW 9 15 5 8 - - 0.0
30/03:00am 8.0 5.4 4.1 76 1.7 NNW 7 11 4 6 - - 0.0
30/02:30am 8.6 6.5 4.0 73 2.0 N 4 9 2 5 - - 0.0
30/02:00am 9.1 5.3 4.1 71 2.2 W 13 19 7 10 - - 0.0
30/01:30am 9.2 5.5 4.2 71 2.2 W 13 19 7 10 - - 0.0
30/01:00am 9.4 6.8 4.4 71 2.2 W 7 13 4 7 - - 0.0
30/12:30am 9.9 6.6 4.5 69 2.4 W 11 15 6 8 - - 0.0
30/12:00am 10.3 7.0 4.5 67 2.6 W 11 17 6 9 - - 0.0
 
Date/Time
EST
Temp
°C
App
Temp
°C
Dew
Point
°C
Rel
Hum
%
Delta-T
°C
Wind Press
QNH
hPa
Press
MSL
hPa
Rain since
9am
mm
Dir  Spd
km/h
Gust
km/h
Spd
kts
Gust
kts
29/11:30pm 10.5 8.0 4.7 67 2.6 W 7 11 4 6 - - 0.0
29/11:00pm 10.7 7.5 5.0 68 2.6 W 11 19 6 10 - - 0.0
29/10:30pm 10.9 8.4 5.0 67 2.7 WNW 7 13 4 7 - - 0.0
29/10:00pm 10.9 7.6 4.7 65 2.8 NNW 11 19 6 10 - - 0.0
29/09:30pm 12.2 7.7 4.2 58 3.6 NW 17 30 9 16 - - 0.0
29/09:00pm 12.3 7.9 4.6 59 3.5 WNW 17 35 9 19 - - 0.0
29/08:30pm 12.7 8.6 4.4 57 3.8 NW 15 28 8 15 - - 0.0
29/08:00pm 12.2 9.2 4.2 58 3.6 NNW 9 15 5 8 - - 0.0
29/07:30pm 12.7 10.0 3.5 53 4.1 E 7 11 4 6 - - 0.0
29/07:00pm 11.7 9.2 3.9 59 3.5 WNW 6 13 3 7 - - 0.0
29/06:30pm 12.6 9.9 3.7 54 4.0 NNE 7 11 4 6 - - 0.0
29/06:00pm 13.4 9.5 3.4 50 4.5 WNW 13 26 7 14 - - 0.0
29/05:30pm 13.7 10.6 3.5 50 4.6 W 9 15 5 8 - - 0.0
29/05:00pm 15.0 11.5 3.3 45 5.3 WSW 11 15 6 8 - - 0.0
29/04:30pm 15.4 12.6 5.0 50 4.9 NW 9 13 5 7 - - 0.0
29/04:00pm 16.5 12.7 4.1 43 5.8 WNW 13 26 7 14 - - 0.0
29/03:30pm 17.0 12.6 4.8 44 5.8 WNW 17 28 9 15 - - 0.0
29/03:00pm 16.3 11.9 4.6 46 5.5 W 17 28 9 15 - - 0.0
29/02:30pm 16.6 13.0 4.8 45 5.6 W 13 20 7 11 - - 0.0
29/02:00pm 17.3 13.3 4.7 43 6.0 WNW 15 22 8 12 - - 0.0
29/01:30pm 17.4 12.8 3.7 40 6.4 NW 17 26 9 14 - - 0.0
29/01:00pm 17.4 14.1 4.3 42 6.2 WNW 11 19 6 10 - - 0.0
29/12:30pm 16.1 11.9 3.8 44 5.7 W 15 32 8 17 - - 0.0
29/12:00pm 16.0 11.9 4.5 46 5.4 NW 15 24 8 13 - - 0.0
29/11:30am 14.6 10.0 3.9 48 4.9 W 17 30 9 16 - - 0.0
29/11:00am 14.2 9.1 3.9 50 4.7 W 20 30 11 16 - - 0.0
29/10:30am 13.7 9.5 3.8 51 4.5 NW 15 32 8 17 - - 0.0
29/10:00am 13.1 8.5 3.8 53 4.2 WNW 17 28 9 15 - - 0.0
29/09:30am 12.2 7.2 3.4 55 3.9 WNW 19 32 10 17 - - 0.0
29/09:00am 11.6 7.2 2.9 55 3.8 NW 15 24 8 13 - - 0.0
29/08:30am 10.9 7.8 3.4 60 3.3 WNW 9 19 5 10 - - 0.0
29/08:00am 8.6 6.5 4.0 73 2.0 E 4 7 2 4 - - 0.0
29/07:30am 7.6 5.0 3.4 75 1.8 NE 6 7 3 4 - - 0.0
29/07:00am 6.9 4.3 3.1 77 1.6 N 6 7 3 4 - - 0.0
29/06:30am 7.0 4.3 2.9 75 1.7 NNW 6 9 3 5 - - 0.0
29/06:00am 7.3 4.4 2.8 73 1.9 WNW 7 11 4 6 - - 0.0
29/05:30am 6.3 3.6 2.9 79 1.4 N 6 9 3 5 - - 0.0
29/05:00am 6.6 4.0 3.0 78 1.5 NNE 6 11 3 6 - - 0.0
29/04:30am 8.2 5.3 2.7 68 2.3 WSW 7 11 4 6 - - 0.0
29/04:00am 7.8 5.6 3.6 75 1.8 W 4 7 2 4 - - 0.0
29/03:30am 7.8 4.7 3.6 75 1.8 W 9 13 5 7 - - 0.0
29/03:00am 8.8 4.9 3.5 69 2.3 WSW 13 17 7 9 - - 0.0
29/02:30am 9.2 5.7 3.7 68 2.4 W 11 17 6 9 - - 0.0
29/02:00am 9.1 6.1 4.1 71 2.2 W 9 13 5 7 - - 0.0
29/01:30am 9.8 6.5 4.4 69 2.4 W 11 19 6 10 - - 0.0
29/01:00am 10.7 7.4 4.7 66 2.7 W 11 19 6 10 - - 0.0
29/12:30am 11.1 8.3 5.0 66 2.8 W 9 15 5 8 - - 0.0
29/12:00am 10.9 8.1 5.2 68 2.6 W 9 13 5 7 - - 0.0
 
Date/Time
EST
Temp
°C
App
Temp
°C
Dew
Point
°C
Rel
Hum
%
Delta-T
°C
Wind Press
QNH
hPa
Press
MSL
hPa
Rain since
9am
mm
Dir  Spd
km/h
Gust
km/h
Spd
kts
Gust
kts
28/11:30pm 11.5 8.3 5.2 65 2.9 W 11 17 6 9 - - 0.0
28/11:00pm 12.0 8.4 5.0 62 3.2 W 13 19 7 10 - - 0.0
28/10:30pm 12.3 8.7 5.2 62 3.3 W 13 17 7 9 - - 0.0
28/10:00pm 12.8 10.0 5.3 60 3.5 W 9 17 5 9 - - 0.0
28/09:30pm 13.4 10.6 5.3 58 3.8 W 9 13 5 7 - - 0.0
28/09:00pm 14.1 10.1 4.9 54 4.3 NW 15 26 8 14 - - 0.0
28/08:30pm 14.3 9.4 4.9 53 4.4 NW 20 32 11 17 - - 0.0
28/08:00pm 14.8 10.0 4.7 51 4.7 NW 19 26 10 14 - - 0.0

Other Formats:

Comma delimited format used in spreadsheet applications
http://www.bom.gov.au/fwo/IDN60801/IDN60801.94775.axf

JavaScript Object Notation format (JSON) in row-major order
http://www.bom.gov.au/fwo/IDN60801/IDN60801.94775.json